createdAt,value
2022-11-19T00:02:22.324Z,6.50
2022-11-19T00:05:41.060Z,6.50
2022-11-19T00:08:08.271Z,6.40
2022-11-19T00:10:36.098Z,6.30
2022-11-19T00:13:04.502Z,6.30
2022-11-19T00:15:31.500Z,6.30
2022-11-19T00:17:58.529Z,6.30
2022-11-19T00:20:25.570Z,6.40
2022-11-19T00:22:53.799Z,6.20
2022-11-19T00:25:21.421Z,6.20
2022-11-19T00:27:48.475Z,6.10
2022-11-19T00:30:40.652Z,6.10
2022-11-19T00:33:02.586Z,6.10
2022-11-19T00:35:29.323Z,6.10
2022-11-19T00:37:56.367Z,6.00
2022-11-19T00:40:23.094Z,5.90
2022-11-19T00:43:09.777Z,5.90
2022-11-19T00:45:36.464Z,5.80
2022-11-19T00:48:03.184Z,5.70
2022-11-19T00:50:29.955Z,5.70
2022-11-19T00:52:56.668Z,5.60
2022-11-19T00:55:23.449Z,5.60
2022-11-19T00:57:50.153Z,5.60
2022-11-19T01:00:17.252Z,5.60
2022-11-19T01:02:43.992Z,5.60
2022-11-19T01:05:10.729Z,5.70
2022-11-19T01:07:37.528Z,5.70
2022-11-19T01:10:05.247Z,5.80
2022-11-19T01:12:51.934Z,5.70
2022-11-19T01:15:18.676Z,5.70
2022-11-19T01:17:45.411Z,5.70
2022-11-19T01:20:12.406Z,5.70
2022-11-19T01:22:39.147Z,5.60
2022-11-19T01:25:06.183Z,5.50
2022-11-19T01:27:32.896Z,5.50
2022-11-19T01:29:59.621Z,5.40
2022-11-19T01:32:26.333Z,5.40
2022-11-19T01:34:53.526Z,5.40
2022-11-19T01:37:20.219Z,5.30
2022-11-19T01:39:46.952Z,5.20
2022-11-19T01:42:49.966Z,5.20
2022-11-19T01:45:29.282Z,5.10
2022-11-19T01:48:00.331Z,5.10
2022-11-19T01:50:28.849Z,5.10
2022-11-19T01:52:55.654Z,5.00
2022-11-19T01:55:22.568Z,4.90
2022-11-19T01:57:58.680Z,5.00
2022-11-19T02:00:26.195Z,4.90
2022-11-19T02:02:53.291Z,5.00
2022-11-19T02:05:21.024Z,5.00
2022-11-19T02:07:55.953Z,4.90
2022-11-19T02:10:36.493Z,4.80
2022-11-19T02:16:09.617Z,4.70
2022-11-19T02:19:11.042Z,4.80
2022-11-19T02:22:08.050Z,4.60
2022-11-19T02:24:54.596Z,4.70
2022-11-19T02:27:58.229Z,4.70
2022-11-19T02:30:25.058Z,4.60
2022-11-19T02:32:58.851Z,4.60
2022-11-19T02:35:44.224Z,4.60
2022-11-19T02:38:48.480Z,4.50
2022-11-19T02:41:35.208Z,4.40
2022-11-19T02:44:42.502Z,4.40
2022-11-19T02:47:15.301Z,4.30
2022-11-19T02:49:47.587Z,4.30
2022-11-19T02:52:15.530Z,4.30
2022-11-19T02:54:42.362Z,4.20
2022-11-19T02:57:11.014Z,4.20
2022-11-19T03:00:01.174Z,4.10
2022-11-19T03:02:52.070Z,4.00
2022-11-19T03:05:22.255Z,4.10
2022-11-19T03:07:49.126Z,4.00
2022-11-19T03:10:17.442Z,4.00
2022-11-19T03:13:23.262Z,4.00
2022-11-19T03:16:10.091Z,4.00
2022-11-19T03:18:59.537Z,4.00
2022-11-19T03:21:38.381Z,4.00
2022-11-19T03:24:26.571Z,4.00
2022-11-19T03:26:58.805Z,4.00
2022-11-19T03:29:27.912Z,3.90
2022-11-19T03:32:03.322Z,3.90
2022-11-19T03:34:31.661Z,3.80
2022-11-19T03:37:01.538Z,3.90
2022-11-19T03:39:28.526Z,3.90
2022-11-19T03:41:56.894Z,3.90
2022-11-19T03:44:38.473Z,3.90
2022-11-19T03:47:11.339Z,3.90
2022-11-19T03:49:41.734Z,3.80
2022-11-19T03:52:15.217Z,3.80
2022-11-19T03:54:42.632Z,3.80
2022-11-19T03:57:12.798Z,3.80
2022-11-19T03:59:39.684Z,3.70
2022-11-19T04:02:11.101Z,3.60
2022-11-19T04:04:38.995Z,3.60
2022-11-19T04:07:13.335Z,3.60
2022-11-19T04:09:41.442Z,3.70
2022-11-19T04:12:15.622Z,3.60
2022-11-19T04:14:42.441Z,3.70
2022-11-19T04:17:09.462Z,3.70
2022-11-19T04:19:36.449Z,3.70
2022-11-19T04:22:03.599Z,3.60
2022-11-19T04:24:30.340Z,3.60
2022-11-19T04:26:57.035Z,3.70
2022-11-19T04:29:23.969Z,3.60
2022-11-19T04:31:50.675Z,3.60
2022-11-19T04:34:17.416Z,3.60
2022-11-19T04:36:44.142Z,3.60
2022-11-19T04:39:12.447Z,3.60
2022-11-19T04:41:39.965Z,3.50
2022-11-19T04:44:07.019Z,3.60
2022-11-19T04:46:34.144Z,3.50
2022-11-19T04:49:00.858Z,3.50
2022-11-19T04:51:27.558Z,3.50
2022-11-19T04:53:55.030Z,3.60
2022-11-19T04:56:21.797Z,3.60
2022-11-19T04:58:48.519Z,3.50
2022-11-19T05:01:15.345Z,3.50
2022-11-19T05:03:42.171Z,3.40
2022-11-19T05:06:08.932Z,3.40
2022-11-19T05:08:35.657Z,3.50
2022-11-19T05:11:02.395Z,3.50
2022-11-19T05:13:29.130Z,3.40
2022-11-19T05:15:55.854Z,3.40
2022-11-19T05:18:23.927Z,3.40
2022-11-19T05:20:50.674Z,3.50
2022-11-19T05:23:17.433Z,3.50
2022-11-19T05:25:44.222Z,3.40
2022-11-19T05:28:10.926Z,3.40
2022-11-19T05:30:37.728Z,3.30
2022-11-19T05:33:04.853Z,3.40
2022-11-19T05:35:32.037Z,3.40
2022-11-19T05:37:58.806Z,3.50
2022-11-19T05:40:25.832Z,3.50
2022-11-19T05:42:52.602Z,3.40
2022-11-19T05:45:19.387Z,3.40
2022-11-19T05:47:48.764Z,3.30
2022-11-19T05:50:15.842Z,3.40
2022-11-19T05:52:42.566Z,3.40
2022-11-19T05:55:09.483Z,3.30
2022-11-19T05:57:37.143Z,3.30
2022-11-19T06:00:05.274Z,3.40
2022-11-19T06:02:32.056Z,3.40
2022-11-19T06:04:58.794Z,3.50
2022-11-19T06:07:25.558Z,3.40
2022-11-19T06:09:52.496Z,3.40
2022-11-19T06:12:19.191Z,3.40
2022-11-19T06:14:45.924Z,3.40
2022-11-19T06:17:12.639Z,3.40
2022-11-19T06:19:39.359Z,3.30
2022-11-19T06:22:06.197Z,3.30
2022-11-19T06:24:32.915Z,3.30
2022-11-19T06:26:59.671Z,3.30
2022-11-19T06:29:26.390Z,3.20
2022-11-19T06:31:53.147Z,3.20
2022-11-19T06:34:19.900Z,3.10
2022-11-19T06:36:50.584Z,3.00
2022-11-19T06:39:18.362Z,3.00
2022-11-19T06:41:45.531Z,3.00
2022-11-19T06:44:12.224Z,3.00
2022-11-19T06:46:38.964Z,3.10
2022-11-19T06:49:05.967Z,3.10
2022-11-19T06:51:33.265Z,3.00
2022-11-19T06:54:00.046Z,3.00
2022-11-19T06:56:26.770Z,3.10
2022-11-19T06:58:57.193Z,3.10
2022-11-19T07:01:23.942Z,3.10
2022-11-19T07:03:50.734Z,3.10
2022-11-19T07:06:17.483Z,3.10
2022-11-19T07:08:44.202Z,3.10
2022-11-19T07:11:26.056Z,3.10
2022-11-19T07:14:00.502Z,3.10
2022-11-19T07:16:33.496Z,3.10
2022-11-19T07:19:02.443Z,3.10
2022-11-19T07:21:30.050Z,3.10
2022-11-19T07:23:57.978Z,3.00
2022-11-19T07:26:25.151Z,3.10
2022-11-19T07:28:52.022Z,3.10
2022-11-19T07:31:19.123Z,3.00
2022-11-19T07:33:45.844Z,3.00
2022-11-19T07:36:17.017Z,3.00
2022-11-19T07:38:45.344Z,3.00
2022-11-19T07:41:30.622Z,2.90
2022-11-19T07:43:57.397Z,2.90
2022-11-19T07:46:24.392Z,3.00
2022-11-19T07:48:55.486Z,2.90
2022-11-19T07:51:23.122Z,2.90
2022-11-19T07:53:50.064Z,2.80
2022-11-19T07:56:17.487Z,2.90
2022-11-19T07:58:44.583Z,2.90
2022-11-19T08:01:14.007Z,2.90
2022-11-19T08:03:42.711Z,3.00
2022-11-19T08:06:10.030Z,3.00
2022-11-19T08:08:36.763Z,3.00
2022-11-19T08:11:08.663Z,3.10
2022-11-19T08:13:36.116Z,3.10
2022-11-19T08:16:08.372Z,3.00
2022-11-19T08:18:35.409Z,3.10
2022-11-19T08:21:11.933Z,3.20
2022-11-19T08:23:39.447Z,3.20
2022-11-19T08:26:09.179Z,3.30
2022-11-19T08:28:35.945Z,3.20
2022-11-19T08:31:07.530Z,3.30
2022-11-19T08:33:35.123Z,3.30
2022-11-19T08:36:02.002Z,3.20
2022-11-19T08:38:28.768Z,3.20
2022-11-19T08:41:15.609Z,3.10
2022-11-19T08:43:42.696Z,3.10
2022-11-19T08:46:09.689Z,3.00
2022-11-19T08:48:36.459Z,3.00
2022-11-19T08:51:08.734Z,3.10
2022-11-19T08:53:35.650Z,3.10
2022-11-19T08:56:02.420Z,3.20
2022-11-19T08:58:29.190Z,3.30
2022-11-19T09:00:55.937Z,3.40
2022-11-19T09:03:22.689Z,3.40
2022-11-19T09:05:49.420Z,3.40
2022-11-19T09:08:16.139Z,3.30
2022-11-19T09:10:42.895Z,3.40
2022-11-19T09:13:09.626Z,3.60
2022-11-19T09:15:36.342Z,3.60
2022-11-19T09:18:03.089Z,3.40
2022-11-19T09:20:29.800Z,3.30
2022-11-19T09:22:56.504Z,3.40
2022-11-19T09:25:23.359Z,3.50
2022-11-19T09:27:50.121Z,3.50
2022-11-19T09:30:16.978Z,3.50
2022-11-19T09:32:43.717Z,3.50
2022-11-19T09:35:10.489Z,3.50
2022-11-19T09:37:37.201Z,3.60
2022-11-19T09:40:04.908Z,3.60
2022-11-19T09:42:45.015Z,3.60
2022-11-19T09:45:17.698Z,3.60
2022-11-19T09:47:53.108Z,3.60
2022-11-19T09:50:23.254Z,3.50
2022-11-19T09:53:01.736Z,3.60
2022-11-19T09:55:42.023Z,3.50
2022-11-19T09:58:20.255Z,3.50
2022-11-19T10:00:47.257Z,3.30
2022-11-19T10:03:23.133Z,3.30
2022-11-19T10:05:56.007Z,3.30
2022-11-19T10:08:49.500Z,3.40
2022-11-19T10:11:34.944Z,3.40
2022-11-19T10:14:22.936Z,3.40
2022-11-19T10:17:05.158Z,3.50
2022-11-19T10:19:56.687Z,3.50
2022-11-19T10:22:29.796Z,3.60
2022-11-19T10:25:01.688Z,3.80
2022-11-19T10:27:31.257Z,3.70
2022-11-19T10:30:03.004Z,3.70
2022-11-19T10:32:35.114Z,3.70
2022-11-19T10:35:11.769Z,3.70
2022-11-19T10:37:46.375Z,3.80
2022-11-19T10:40:21.833Z,3.60
2022-11-19T10:42:54.335Z,3.50
2022-11-19T10:45:27.699Z,3.30
2022-11-19T10:48:23.800Z,3.20
2022-11-19T10:50:51.833Z,3.20
2022-11-19T10:53:31.456Z,3.20
2022-11-19T10:56:03.250Z,3.30
2022-11-19T11:01:21.957Z,3.20
2022-11-19T11:03:54.662Z,3.30
2022-11-19T11:06:21.339Z,3.30
2022-11-19T11:08:52.376Z,3.30
2022-11-19T11:11:52.236Z,3.30
2022-11-19T11:14:41.145Z,3.40
2022-11-19T11:17:25.910Z,3.40
2022-11-19T11:20:00.983Z,3.30
2022-11-19T11:22:28.364Z,3.30
2022-11-19T11:24:55.199Z,3.30
2022-11-19T11:27:24.575Z,3.40
2022-11-19T11:30:14.019Z,3.30
2022-11-19T11:32:41.712Z,3.30
2022-11-19T11:35:36.075Z,3.40
2022-11-19T11:38:03.693Z,3.40
2022-11-19T11:40:31.433Z,3.50
2022-11-19T11:42:58.630Z,3.30
2022-11-19T11:45:35.125Z,3.30
2022-11-19T11:48:17.788Z,3.30
2022-11-19T11:50:47.647Z,3.20
2022-11-19T11:53:17.014Z,3.20
2022-11-19T11:55:43.890Z,3.10
2022-11-19T11:58:32.247Z,3.20
2022-11-19T12:01:15.602Z,3.30
2022-11-19T12:03:57.582Z,3.40
2022-11-19T12:06:38.044Z,3.40
2022-11-19T12:09:26.435Z,3.30
2022-11-19T12:12:04.043Z,3.30
2022-11-19T12:14:38.030Z,3.40
2022-11-19T12:17:27.547Z,3.50
2022-11-19T12:20:19.172Z,3.40
2022-11-19T12:23:15.452Z,3.60
2022-11-19T12:26:05.863Z,3.60
2022-11-19T12:28:41.439Z,3.40
2022-11-19T12:31:08.122Z,3.40
2022-11-19T12:34:03.311Z,3.30
2022-11-19T12:36:49.378Z,3.40
2022-11-19T12:39:27.805Z,3.20
2022-11-19T12:42:16.017Z,3.30
2022-11-19T12:45:20.870Z,3.30
2022-11-19T12:48:26.325Z,3.30
2022-11-19T12:50:59.276Z,3.40
2022-11-19T12:54:06.925Z,3.50
2022-11-19T12:56:46.690Z,3.50
2022-11-19T12:59:24.702Z,3.60
2022-11-19T13:01:54.867Z,3.70
2022-11-19T13:04:36.880Z,3.80
2022-11-19T13:07:25.281Z,3.90
2022-11-19T13:10:00.794Z,3.90
2022-11-19T13:12:41.314Z,3.70
2022-11-19T13:15:11.782Z,3.70
2022-11-19T13:17:42.540Z,3.70
2022-11-19T13:20:27.538Z,3.80
2022-11-19T13:22:59.342Z,3.70
2022-11-19T13:25:33.300Z,3.60
2022-11-19T13:28:03.561Z,3.70
2022-11-19T13:30:32.124Z,3.60
2022-11-19T13:33:17.792Z,3.70
2022-11-19T13:35:52.468Z,3.80
2022-11-19T13:38:44.646Z,4.00
2022-11-19T13:41:18.393Z,4.10
2022-11-19T13:44:04.247Z,4.00
2022-11-19T13:46:40.657Z,3.90
2022-11-19T13:49:25.132Z,3.90
2022-11-19T13:52:04.568Z,3.90
2022-11-19T13:54:37.140Z,3.90
2022-11-19T13:57:05.714Z,3.90
2022-11-19T13:59:40.262Z,4.00
2022-11-19T14:02:38.975Z,4.00
2022-11-19T14:05:14.947Z,4.10
2022-11-19T14:08:26.755Z,4.00
2022-11-19T14:11:23.424Z,4.00
2022-11-19T14:14:02.087Z,4.00
2022-11-19T14:17:02.416Z,4.00
2022-11-19T14:19:48.087Z,4.00
2022-11-19T14:22:54.373Z,4.00
2022-11-19T14:25:57.858Z,4.00
2022-11-19T14:28:44.742Z,4.10
2022-11-19T14:31:11.884Z,4.10
2022-11-19T14:33:57.927Z,4.20
2022-11-19T14:36:32.251Z,4.20
2022-11-19T14:39:05.418Z,4.30
2022-11-19T14:41:34.588Z,4.20
2022-11-19T14:44:11.152Z,4.20
2022-11-19T14:46:46.591Z,4.20
2022-11-19T14:49:38.872Z,4.10
2022-11-19T14:52:21.300Z,4.00
2022-11-19T14:57:30.011Z,4.00
2022-11-19T15:00:01.572Z,4.10
2022-11-19T15:02:39.686Z,4.00
2022-11-19T15:05:15.477Z,4.10
2022-11-19T15:07:49.008Z,4.10
2022-11-19T15:10:33.799Z,4.10
2022-11-19T15:13:17.979Z,4.20
2022-11-19T15:15:46.024Z,4.20
2022-11-19T15:18:40.468Z,4.20
2022-11-19T15:21:16.921Z,4.10
2022-11-19T15:23:57.306Z,4.00
2022-11-19T15:27:00.147Z,4.10
2022-11-19T15:29:57.028Z,4.00
2022-11-19T15:32:29.271Z,4.00
2022-11-19T15:35:33.747Z,3.90
2022-11-19T15:38:20.236Z,3.90
2022-11-19T15:40:48.359Z,3.90
2022-11-19T15:43:26.529Z,4.00
2022-11-19T15:45:57.561Z,4.00
2022-11-19T15:48:51.392Z,3.90
2022-11-19T15:51:19.285Z,3.80
2022-11-19T15:54:07.098Z,3.80
2022-11-19T15:56:46.862Z,3.70
2022-11-19T15:59:15.754Z,3.70
2022-11-19T16:01:42.926Z,3.80
2022-11-19T16:04:16.517Z,3.70
2022-11-19T16:06:46.144Z,3.70
2022-11-19T16:09:23.623Z,3.60
2022-11-19T16:12:09.697Z,3.60
2022-11-19T16:14:55.199Z,3.70
2022-11-19T16:17:43.181Z,3.70
2022-11-19T16:20:10.785Z,3.70
2022-11-19T16:22:58.277Z,3.60
2022-11-19T16:25:31.135Z,3.60
2022-11-19T16:28:01.280Z,3.60
2022-11-19T16:30:30.232Z,3.70
2022-11-19T16:33:00.289Z,3.60
2022-11-19T16:35:30.524Z,3.70
2022-11-19T16:37:59.354Z,3.60
2022-11-19T16:40:26.905Z,3.60
2022-11-19T16:43:00.493Z,3.70
2022-11-19T16:45:30.114Z,3.70
2022-11-19T16:47:58.850Z,3.60
2022-11-19T16:50:43.769Z,3.60
2022-11-19T16:53:44.956Z,3.40
2022-11-19T16:56:16.641Z,3.30
2022-11-19T16:58:45.833Z,3.30
2022-11-19T17:01:17.030Z,3.40
2022-11-19T17:03:44.447Z,3.40
2022-11-19T17:06:24.134Z,3.40
2022-11-19T17:08:59.094Z,3.50
2022-11-19T17:11:58.325Z,3.40
2022-11-19T17:14:30.869Z,3.40
2022-11-19T17:16:57.564Z,3.40
2022-11-19T17:19:31.444Z,3.40
2022-11-19T17:22:04.062Z,3.40
2022-11-19T17:24:51.179Z,3.40
2022-11-19T17:27:36.988Z,3.30
2022-11-19T17:30:20.520Z,3.30
2022-11-19T17:32:59.715Z,3.30
2022-11-19T17:35:44.077Z,3.30
2022-11-19T17:38:16.557Z,3.30
2022-11-19T17:40:56.544Z,3.40
2022-11-19T17:43:56.871Z,3.30
2022-11-19T17:46:28.566Z,3.30
2022-11-19T17:48:55.557Z,3.20
2022-11-19T17:51:25.259Z,3.20
2022-11-19T17:53:53.258Z,3.20
2022-11-19T17:56:25.929Z,3.10
2022-11-19T17:58:52.840Z,3.00
2022-11-19T18:01:19.857Z,3.10
2022-11-19T18:03:47.021Z,3.10
2022-11-19T18:06:15.576Z,3.00
2022-11-19T18:08:43.236Z,2.90
2022-11-19T18:11:18.703Z,2.90
2022-11-19T18:13:46.184Z,2.90
2022-11-19T18:16:18.557Z,3.00
2022-11-19T18:18:45.813Z,3.10
2022-11-19T18:21:14.093Z,3.10
2022-11-19T18:23:42.128Z,3.10
2022-11-19T18:26:13.117Z,3.00
2022-11-19T18:28:42.555Z,3.10
2022-11-19T18:31:19.657Z,3.10
2022-11-19T18:33:48.062Z,3.10
2022-11-19T18:36:15.650Z,3.10
2022-11-19T18:38:43.159Z,3.20
2022-11-19T18:41:14.481Z,3.20
2022-11-19T18:44:00.487Z,3.10
2022-11-19T18:46:27.263Z,3.10
2022-11-19T18:48:53.949Z,3.20
2022-11-19T18:51:21.008Z,3.20
2022-11-19T18:53:48.125Z,3.20
2022-11-19T18:56:16.052Z,3.20
2022-11-19T18:58:42.824Z,3.20
2022-11-19T19:01:10.105Z,3.20
2022-11-19T19:03:37.006Z,3.20
2022-11-19T19:06:05.905Z,3.20
2022-11-19T19:08:33.311Z,3.30
2022-11-19T19:11:18.831Z,3.20
2022-11-19T19:13:46.759Z,3.20
2022-11-19T19:16:14.055Z,3.20
2022-11-19T19:18:40.789Z,3.30
2022-11-19T19:21:14.565Z,3.40
2022-11-19T19:23:41.756Z,3.40
2022-11-19T19:26:09.999Z,3.30
2022-11-19T19:28:37.107Z,3.30
2022-11-19T19:31:07.735Z,3.20
2022-11-19T19:33:34.749Z,3.10
2022-11-19T19:36:05.788Z,3.20
2022-11-19T19:38:32.611Z,3.10
2022-11-19T19:41:07.295Z,3.00
2022-11-19T19:43:34.075Z,2.90
2022-11-19T19:46:05.915Z,2.90
2022-11-19T19:48:33.123Z,2.90
2022-11-19T19:50:59.791Z,2.90
2022-11-19T20:08:19.207Z,3.00
2022-11-19T20:10:45.972Z,3.10
2022-11-19T20:13:27.761Z,3.00
2022-11-19T20:16:03.175Z,3.00
2022-11-19T20:18:31.987Z,3.00
2022-11-19T20:21:00.434Z,3.00
2022-11-19T20:23:28.477Z,2.90
2022-11-19T20:26:04.644Z,3.00
2022-11-19T20:28:31.926Z,3.00
2022-11-19T20:31:11.727Z,3.00
2022-11-19T20:33:39.494Z,2.90
2022-11-19T20:36:07.537Z,3.00
2022-11-19T20:38:42.595Z,2.80
2022-11-19T20:41:31.898Z,2.80
2022-11-19T20:44:18.271Z,2.80
2022-11-19T20:46:44.955Z,2.80
2022-11-19T20:49:17.112Z,2.80
2022-11-19T20:51:44.905Z,2.80
2022-11-19T20:54:12.366Z,2.90
2022-11-19T20:56:40.148Z,2.90
2022-11-19T20:59:07.242Z,2.90
2022-11-19T21:01:34.855Z,3.00
2022-11-19T21:04:01.839Z,3.10
2022-11-19T21:06:28.850Z,3.00
2022-11-19T21:08:56.367Z,3.00
2022-11-19T21:11:24.134Z,2.90
2022-11-19T21:13:50.903Z,3.00
2022-11-19T21:16:23.199Z,2.90
2022-11-19T21:18:50.773Z,3.00
2022-11-19T21:21:19.355Z,3.00
2022-11-19T21:23:46.319Z,3.10
2022-11-19T21:26:16.785Z,3.10
2022-11-19T21:28:48.198Z,3.00
2022-11-19T21:31:16.854Z,2.90
2022-11-19T21:33:43.992Z,3.10
2022-11-19T21:36:11.654Z,3.10
2022-11-19T21:38:38.884Z,2.90
2022-11-19T21:41:06.668Z,2.90
2022-11-19T21:43:33.512Z,2.90
2022-11-19T21:46:00.247Z,2.80
2022-11-19T21:48:27.071Z,2.70
2022-11-19T21:50:54.094Z,2.60
2022-11-19T21:53:21.339Z,2.60
2022-11-19T21:55:49.352Z,2.70
2022-11-19T21:58:16.895Z,2.70
2022-11-19T22:00:46.741Z,2.70
2022-11-19T22:03:14.079Z,2.70
2022-11-19T22:05:40.911Z,2.70
2022-11-19T22:10:44.238Z,2.80
2022-11-19T22:13:12.198Z,2.80
2022-11-19T22:15:38.905Z,2.60
2022-11-19T22:18:05.775Z,2.50
2022-11-19T22:20:32.479Z,2.50
2022-11-19T22:22:59.208Z,2.50
2022-11-19T22:25:25.903Z,2.50
2022-11-19T22:27:52.619Z,2.40
2022-11-19T22:30:19.402Z,2.50
2022-11-19T22:32:46.107Z,2.40
2022-11-19T22:35:12.824Z,2.30
2022-11-19T22:37:39.585Z,2.30
2022-11-19T22:40:06.872Z,2.40
2022-11-19T22:42:33.583Z,2.50
2022-11-19T22:45:00.280Z,2.50
2022-11-19T22:47:27.267Z,2.50
2022-11-19T22:49:53.982Z,2.50
2022-11-19T22:52:20.772Z,2.60
2022-11-19T22:54:47.546Z,2.50
2022-11-19T22:57:14.322Z,2.50
2022-11-19T22:59:41.029Z,2.50
2022-11-19T23:02:07.779Z,2.50
2022-11-19T23:04:34.488Z,2.50
2022-11-19T23:07:01.289Z,2.50
2022-11-19T23:09:28.178Z,2.50
2022-11-19T23:12:13.519Z,2.40
2022-11-19T23:14:40.282Z,2.50
2022-11-19T23:17:06.980Z,2.60
2022-11-19T23:19:36.205Z,2.40
2022-11-19T23:22:03.133Z,2.30
2022-11-19T23:24:29.837Z,2.30
2022-11-19T23:26:56.551Z,2.40
2022-11-19T23:29:23.483Z,2.40
2022-11-19T23:31:50.365Z,2.40
2022-11-19T23:34:17.138Z,2.40
2022-11-19T23:36:43.848Z,2.30
2022-11-19T23:39:15.761Z,2.50
2022-11-19T23:41:42.674Z,2.50
2022-11-19T23:44:09.559Z,2.50
2022-11-19T23:46:36.811Z,2.30
